Time;durP1;ratioP1;P1;durP2;ratioP2;P2;SDS_P1;SDS_P2;PMS_P1;PMS_P2;Temp;Humidity;BMP_temperature;BMP_pressure;BME280_temperature;BME280_humidity;BME280_pressure;Samples;Min_cycle;Max_cycle;Signal;HPM_P1;HPM_P2
2023/12/25 00:00:37;;;;;;;2.57;0.80;;;12.40;99.90;;;;;;5076357;28;20175;-74
2023/12/25 00:03:03;;;;;;;2.00;0.70;;;12.40;99.90;;;;;;5075780;28;20193;-74
2023/12/25 00:05:29;;;;;;;1.17;0.90;;;12.40;99.90;;;;;;5064347;28;20424;-74
2023/12/25 00:07:54;;;;;;;0.90;0.60;;;12.30;99.90;;;;;;5067392;28;20265;-76
2023/12/25 00:10:20;;;;;;;1.23;0.70;;;12.40;99.90;;;;;;5057237;28;20185;-74
2023/12/25 00:12:45;;;;;;;4.83;1.00;;;12.30;99.90;;;;;;5076637;28;20730;-74
2023/12/25 00:15:11;;;;;;;0.90;0.70;;;12.30;99.90;;;;;;5061309;28;20189;-74
2023/12/25 00:17:37;;;;;;;1.33;0.60;;;12.30;99.90;;;;;;5056964;28;20198;-74
2023/12/25 00:20:03;;;;;;;0.80;0.60;;;12.30;99.90;;;;;;5058068;28;20175;-74
2023/12/25 00:22:29;;;;;;;1.10;0.67;;;12.30;99.90;;;;;;5068769;28;20791;-73
2023/12/25 00:24:54;;;;;;;1.10;0.70;;;12.20;99.90;;;;;;5067525;28;20508;-74
2023/12/25 00:27:20;;;;;;;2.97;0.90;;;12.30;99.90;;;;;;5057134;28;20209;-73
2023/12/25 00:29:46;;;;;;;1.20;0.73;;;12.30;99.90;;;;;;5052306;28;20173;-75
2023/12/25 00:32:12;;;;;;;1.10;0.73;;;12.30;99.90;;;;;;5059034;28;20531;-72
2023/12/25 00:34:37;;;;;;;0.80;0.70;;;12.30;99.90;;;;;;5064232;28;20198;-74
2023/12/25 00:37:03;;;;;;;1.27;0.97;;;12.40;99.90;;;;;;5068231;28;20456;-72
2023/12/25 00:39:29;;;;;;;1.63;0.90;;;12.50;99.90;;;;;;5068174;28;20636;-74
2023/12/25 00:41:54;;;;;;;1.30;0.70;;;12.50;99.90;;;;;;5062535;28;20218;-72
2023/12/25 00:44:20;;;;;;;1.13;0.70;;;12.50;99.90;;;;;;5057486;28;20170;-73
2023/12/25 00:46:45;;;;;;;1.30;0.83;;;12.60;99.90;;;;;;5060115;28;20549;-72
2023/12/25 00:49:12;;;;;;;0.80;0.60;;;12.60;99.90;;;;;;5067380;28;20186;-73
2023/12/25 00:51:37;;;;;;;2.07;0.80;;;12.70;99.90;;;;;;5062793;28;20225;-72
2023/12/25 00:54:03;;;;;;;1.13;0.80;;;12.80;99.90;;;;;;5060894;28;20488;-73
2023/12/25 00:56:28;;;;;;;0.93;0.80;;;12.80;99.90;;;;;;5080547;28;20212;-72
2023/12/25 00:58:54;;;;;;;1.03;0.80;;;12.70;99.90;;;;;;5067400;28;20187;-73
2023/12/25 01:01:20;;;;;;;1.10;1.00;;;12.70;99.90;;;;;;5069151;28;20177;-73
2023/12/25 01:03:45;;;;;;;1.13;0.80;;;12.80;99.90;;;;;;5072001;28;20227;-74
2023/12/25 01:06:10;;;;;;;0.80;0.70;;;12.80;99.90;;;;;;5068201;28;20213;-73
2023/12/25 01:08:36;;;;;;;1.67;0.80;;;12.70;99.90;;;;;;5064701;28;20645;-72
2023/12/25 01:11:02;;;;;;;1.10;0.70;;;12.70;99.90;;;;;;5082912;28;20211;-73
2023/12/25 01:13:28;;;;;;;1.20;0.73;;;12.70;99.90;;;;;;5083215;28;20250;-74
2023/12/25 01:15:53;;;;;;;1.50;0.87;;;12.70;99.90;;;;;;5066596;28;21034;-73
2023/12/25 01:18:19;;;;;;;1.10;0.60;;;12.60;99.90;;;;;;5073246;28;20175;-73
2023/12/25 01:20:46;;;;;;;1.57;0.70;;;12.60;99.90;;;;;;5070125;28;20653;-72
2023/12/25 01:23:12;;;;;;;1.00;0.70;;;12.60;99.90;;;;;;5072386;28;20189;-73
2023/12/25 01:25:37;;;;;;;2.23;0.77;;;12.70;99.90;;;;;;5071188;28;20424;-74
2023/12/25 01:28:03;;;;;;;1.60;1.10;;;12.70;99.90;;;;;;5072534;28;20181;-72
2023/12/25 01:30:29;;;;;;;1.00;0.70;;;12.70;99.90;;;;;;5060396;28;20210;-72
2023/12/25 01:32:54;;;;;;;1.87;0.90;;;12.60;99.90;;;;;;5078580;28;20694;-73
2023/12/25 01:35:20;;;;;;;0.90;0.70;;;12.70;99.90;;;;;;5067932;28;20257;-73
2023/12/25 01:37:45;;;;;;;1.60;0.80;;;12.70;99.90;;;;;;5070493;28;20197;-73
2023/12/25 01:40:11;;;;;;;0.90;0.80;;;12.60;99.90;;;;;;5074906;28;20527;-73
2023/12/25 01:42:40;;;;;;;1.90;0.90;;;12.60;99.90;;;;;;5066543;28;20273;-73
2023/12/25 01:45:06;;;;;;;2.03;0.80;;;12.70;99.90;;;;;;5071941;28;20174;-74
2023/12/25 01:47:32;;;;;;;0.70;0.60;;;12.70;99.90;;;;;;5073839;28;20419;-72
2023/12/25 01:50:00;;;;;;;0.93;0.60;;;12.60;99.90;;;;;;5082638;28;20434;-73
2023/12/25 01:52:27;;;;;;;1.23;0.80;;;12.70;99.90;;;;;;5076333;28;20194;-73
2023/12/25 01:54:54;;;;;;;0.97;0.80;;;12.60;99.90;;;;;;5083613;28;20901;-74
2023/12/25 01:57:19;;;;;;;0.80;0.60;;;12.60;99.90;;;;;;5079679;28;20973;-73
2023/12/25 01:59:46;;;;;;;3.47;0.70;;;12.70;99.90;;;;;;5069748;28;20444;-73
2023/12/25 02:02:12;;;;;;;0.80;0.70;;;12.70;99.90;;;;;;5078005;28;20522;-73
2023/12/25 02:04:38;;;;;;;0.80;0.70;;;12.70;99.90;;;;;;5070242;28;20184;-72
2023/12/25 02:07:03;;;;;;;1.00;0.60;;;12.70;99.90;;;;;;5070175;28;20492;-73
2023/12/25 02:09:29;;;;;;;3.27;0.70;;;12.70;99.90;;;;;;5074980;28;20186;-74
2023/12/25 02:11:54;;;;;;;0.83;0.63;;;12.70;99.90;;;;;;5077466;28;20201;-74
2023/12/25 02:14:20;;;;;;;1.80;0.70;;;12.70;99.90;;;;;;5062743;28;20186;-72
2023/12/25 02:16:47;;;;;;;0.80;0.60;;;12.70;99.90;;;;;;5063398;28;20665;-73
2023/12/25 02:19:29;;;;;;;2.20;0.70;;;12.70;99.90;;;;;;5067096;28;20664;-74
2023/12/25 02:21:56;;;;;;;0.97;0.70;;;12.70;99.90;;;;;;5070992;28;20512;-73
2023/12/25 02:24:29;;;;;;;0.70;0.60;;;12.80;99.90;;;;;;5071714;28;20433;-73
2023/12/25 02:26:54;;;;;;;0.80;0.60;;;12.80;99.90;;;;;;5081868;28;20419;-74
2023/12/25 02:29:20;;;;;;;0.80;0.60;;;12.80;99.90;;;;;;5069493;28;20524;-72
2023/12/25 02:31:49;;;;;;;1.10;0.97;;;12.80;99.90;;;;;;5079849;28;20197;-73
2023/12/25 02:34:15;;;;;;;0.80;0.60;;;12.80;99.90;;;;;;5067479;28;20178;-73
2023/12/25 02:36:41;;;;;;;0.97;0.70;;;12.80;99.90;;;;;;5071548;28;20523;-74
2023/12/25 02:39:07;;;;;;;1.80;0.87;;;12.70;99.90;;;;;;5060586;28;20185;-72
2023/12/25 02:41:32;;;;;;;0.70;0.60;;;12.70;99.90;;;;;;5067488;28;20221;-73
2023/12/25 02:43:58;;;;;;;1.00;0.90;;;12.70;99.90;;;;;;5081745;28;20308;-73
2023/12/25 02:46:24;;;;;;;1.37;0.80;;;12.70;99.90;;;;;;5072925;28;20311;-73
2023/12/25 02:48:49;;;;;;;0.90;0.60;;;12.70;99.90;;;;;;5074574;28;20468;-73
2023/12/25 02:51:15;;;;;;;1.10;0.80;;;12.70;99.90;;;;;;5062855;28;20288;-74
2023/12/25 02:53:40;;;;;;;0.80;0.60;;;12.60;99.90;;;;;;5065177;28;20194;-73
2023/12/25 02:56:06;;;;;;;1.57;0.70;;;12.40;99.90;;;;;;5061846;28;20292;-73
2023/12/25 02:58:31;;;;;;;1.03;0.70;;;12.40;99.90;;;;;;5074022;28;20263;-73
2023/12/25 03:00:57;;;;;;;3.63;0.80;;;12.40;99.90;;;;;;5064892;28;20174;-73
2023/12/25 03:03:23;;;;;;;1.33;0.70;;;12.30;99.90;;;;;;5074295;28;20194;-73
2023/12/25 03:05:48;;;;;;;1.10;0.80;;;12.30;99.90;;;;;;5073784;28;20205;-73
2023/12/25 03:08:14;;;;;;;1.20;0.77;;;12.30;99.90;;;;;;5062039;28;20190;-74
2023/12/25 03:10:39;;;;;;;1.00;0.70;;;12.30;99.90;;;;;;5069011;28;20660;-74
2023/12/25 03:13:05;;;;;;;0.80;0.70;;;12.20;99.90;;;;;;5065491;28;20202;-73
2023/12/25 03:15:31;;;;;;;1.97;0.60;;;12.30;99.90;;;;;;5076242;28;20179;-73
2023/12/25 03:17:57;;;;;;;1.13;0.70;;;12.20;99.90;;;;;;5070473;28;20198;-73
2023/12/25 03:20:22;;;;;;;0.80;0.70;;;12.20;99.90;;;;;;5065447;28;20432;-73
2023/12/25 03:22:48;;;;;;;2.70;0.80;;;12.20;99.90;;;;;;5082055;28;20197;-73
2023/12/25 03:25:14;;;;;;;0.80;0.60;;;12.30;99.90;;;;;;5070814;28;20182;-73
2023/12/25 03:27:39;;;;;;;1.00;0.80;;;12.40;99.90;;;;;;5064663;28;20257;-74
2023/12/25 03:30:06;;;;;;;0.80;0.60;;;12.50;99.90;;;;;;5072220;28;20186;-74
2023/12/25 03:32:33;;;;;;;2.73;0.70;;;12.60;99.90;;;;;;5074264;28;20210;-73
2023/12/25 03:34:59;;;;;;;0.90;0.63;;;12.50;99.90;;;;;;5069137;28;20436;-74
2023/12/25 03:37:26;;;;;;;0.80;0.70;;;12.50;99.90;;;;;;5065816;28;20452;-73
2023/12/25 03:39:52;;;;;;;3.13;0.77;;;12.50;99.90;;;;;;5081346;28;20159;-72
2023/12/25 03:42:18;;;;;;;8.60;1.53;;;12.60;99.90;;;;;;5073662;28;20428;-73
2023/12/25 03:44:43;;;;;;;0.80;0.60;;;12.60;99.90;;;;;;5079335;28;21163;-72
2023/12/25 03:47:09;;;;;;;1.73;0.80;;;12.50;99.90;;;;;;5073878;28;20814;-74
2023/12/25 03:49:35;;;;;;;2.00;0.80;;;12.60;99.90;;;;;;5068443;28;20527;-74
2023/12/25 03:52:01;;;;;;;0.80;0.60;;;12.70;99.90;;;;;;5071373;28;20202;-73
2023/12/25 03:54:27;;;;;;;0.90;0.70;;;12.70;99.90;;;;;;5067986;28;20531;-72
2023/12/25 03:56:52;;;;;;;1.00;0.80;;;12.70;99.90;;;;;;5075926;28;20202;-73
2023/12/25 03:59:18;;;;;;;1.10;0.93;;;12.70;99.90;;;;;;5074543;28;20226;-72
2023/12/25 04:01:43;;;;;;;3.30;0.80;;;12.70;99.90;;;;;;5067898;28;20721;-73
2023/12/25 04:04:09;;;;;;;2.30;1.53;;;12.70;99.90;;;;;;5069478;28;20543;-73
2023/12/25 04:06:34;;;;;;;1.00;0.80;;;12.70;99.90;;;;;;5073885;28;20193;-73
2023/12/25 04:09:00;;;;;;;1.00;0.70;;;12.80;99.90;;;;;;5067622;28;20189;-73
2023/12/25 04:11:25;;;;;;;1.67;0.90;;;12.80;99.90;;;;;;5073658;28;20229;-72
2023/12/25 04:13:54;;;;;;;1.40;1.10;;;12.90;99.90;;;;;;5076245;28;20173;-73
2023/12/25 04:16:24;;;;;;;2.13;0.77;;;12.90;99.90;;;;;;5067409;28;20214;-73
2023/12/25 04:18:54;;;;;;;1.57;0.87;;;12.90;99.90;;;;;;5064968;28;20765;-73
2023/12/25 04:21:33;;;;;;;1.00;0.80;;;12.90;99.90;;;;;;5069649;28;20432;-73
2023/12/25 04:24:00;;;;;;;0.80;0.50;;;12.90;99.90;;;;;;5077260;28;20437;-73
2023/12/25 04:26:26;;;;;;;1.00;0.80;;;12.90;99.90;;;;;;5077495;28;20433;-73
2023/12/25 04:28:52;;;;;;;0.90;0.70;;;12.90;99.90;;;;;;5070041;28;20483;-73
2023/12/25 04:31:18;;;;;;;0.80;0.60;;;12.90;99.90;;;;;;5061720;28;20853;-74
2023/12/25 04:33:44;;;;;;;0.90;0.80;;;12.90;99.90;;;;;;5071454;28;20433;-72
2023/12/25 04:36:10;;;;;;;0.80;0.80;;;12.90;99.90;;;;;;5070922;28;20255;-73
2023/12/25 04:38:37;;;;;;;1.20;0.73;;;12.90;99.90;;;;;;5065605;28;20421;-73
2023/12/25 04:41:03;;;;;;;1.47;0.70;;;12.90;99.90;;;;;;5074581;28;20498;-73
2023/12/25 04:43:29;;;;;;;0.90;0.67;;;12.90;99.90;;;;;;5070490;28;20498;-73
2023/12/25 04:45:55;;;;;;;2.40;1.00;;;13.00;99.90;;;;;;5069334;28;20741;-73
2023/12/25 04:48:20;;;;;;;0.70;0.60;;;13.00;99.90;;;;;;5076617;28;20584;-73
2023/12/25 04:50:46;;;;;;;1.63;0.70;;;13.00;99.90;;;;;;5069713;28;20236;-72
2023/12/25 04:53:12;;;;;;;1.30;0.60;;;13.10;99.90;;;;;;5074836;28;20252;-73
2023/12/25 04:55:39;;;;;;;0.70;0.60;;;13.00;99.90;;;;;;5080573;28;20408;-73
2023/12/25 04:58:05;;;;;;;0.80;0.60;;;13.00;99.90;;;;;;5081259;28;20548;-73
2023/12/25 05:00:31;;;;;;;0.80;0.50;;;13.00;99.90;;;;;;5074994;28;20524;-73
2023/12/25 05:02:57;;;;;;;1.00;0.70;;;13.00;99.90;;;;;;5080156;28;20182;-74
2023/12/25 05:05:23;;;;;;;0.80;0.70;;;13.00;99.90;;;;;;5068677;28;20439;-72
2023/12/25 05:07:48;;;;;;;0.97;0.63;;;12.90;99.90;;;;;;5085336;28;20210;-72
2023/12/25 05:10:14;;;;;;;0.80;0.60;;;12.90;99.90;;;;;;5067645;28;20316;-74
2023/12/25 05:12:39;;;;;;;0.70;0.60;;;12.90;99.90;;;;;;5074778;28;20239;-74
2023/12/25 05:15:06;;;;;;;0.80;0.60;;;12.80;99.90;;;;;;5075495;28;20184;-73
2023/12/25 05:17:32;;;;;;;2.70;0.70;;;12.80;99.90;;;;;;5072722;28;20205;-73
2023/12/25 05:19:57;;;;;;;0.80;0.70;;;12.70;99.90;;;;;;5068540;28;20432;-73
2023/12/25 05:22:23;;;;;;;2.50;0.80;;;12.80;99.90;;;;;;5068712;28;20451;-72
2023/12/25 05:24:48;;;;;;;1.43;0.60;;;12.70;99.90;;;;;;5069383;28;20179;-73
2023/12/25 05:27:14;;;;;;;4.47;0.87;;;12.70;99.90;;;;;;5078529;28;20185;-74
2023/12/25 05:29:39;;;;;;;1.07;0.90;;;12.80;99.90;;;;;;5066170;28;20178;-73
2023/12/25 05:32:05;;;;;;;2.80;0.70;;;12.70;99.90;;;;;;5080991;28;20205;-72
2023/12/25 05:34:30;;;;;;;2.10;0.50;;;12.70;99.90;;;;;;5076038;28;20526;-73
2023/12/25 05:36:56;;;;;;;0.90;0.70;;;12.60;99.90;;;;;;5065344;28;20440;-74
2023/12/25 05:39:22;;;;;;;0.80;0.70;;;12.50;99.90;;;;;;5057342;28;20178;-74
2023/12/25 05:41:47;;;;;;;1.10;0.60;;;12.50;99.90;;;;;;5075710;28;20811;-73
2023/12/25 05:44:13;;;;;;;2.60;0.80;;;12.40;99.90;;;;;;5079108;28;20649;-73
2023/12/25 05:46:39;;;;;;;0.83;0.60;;;12.40;99.90;;;;;;5067381;28;20181;-73
2023/12/25 05:49:05;;;;;;;1.23;0.70;;;12.30;99.90;;;;;;5073803;28;20178;-73
2023/12/25 05:51:30;;;;;;;0.80;0.60;;;12.20;99.90;;;;;;5072128;28;20202;-73
2023/12/25 05:53:56;;;;;;;0.97;0.60;;;12.20;99.90;;;;;;5078995;28;20432;-72
2023/12/25 05:56:22;;;;;;;1.53;0.70;;;12.20;99.90;;;;;;5062991;28;20199;-73
2023/12/25 05:58:48;;;;;;;0.90;0.60;;;12.20;99.90;;;;;;5073930;28;20158;-73
2023/12/25 06:01:13;;;;;;;0.70;0.50;;;12.10;99.90;;;;;;5066184;28;20179;-72
2023/12/25 06:03:40;;;;;;;0.90;0.70;;;12.00;99.90;;;;;;5068988;28;20425;-74
2023/12/25 06:06:05;;;;;;;0.70;0.50;;;12.00;99.90;;;;;;5064979;28;20220;-73
2023/12/25 06:08:31;;;;;;;1.40;0.73;;;12.10;99.90;;;;;;5064937;28;20453;-73
2023/12/25 06:10:59;;;;;;;0.90;0.70;;;12.10;99.90;;;;;;5057303;28;20182;-74
2023/12/25 06:13:25;;;;;;;0.83;0.60;;;12.00;99.90;;;;;;5067548;28;20224;-72
2023/12/25 06:15:51;;;;;;;0.70;0.50;;;12.00;99.90;;;;;;5057596;28;20495;-73
2023/12/25 06:18:17;;;;;;;1.33;0.60;;;12.00;99.90;;;;;;5061781;28;20206;-73
2023/12/25 06:20:43;;;;;;;0.70;0.50;;;12.00;99.90;;;;;;5069549;28;20170;-73
2023/12/25 06:23:09;;;;;;;0.87;0.60;;;12.00;99.90;;;;;;5062651;28;21136;-73
2023/12/25 06:25:35;;;;;;;1.57;0.67;;;12.00;99.90;;;;;;5067087;28;20435;-73
2023/12/25 06:28:01;;;;;;;0.80;0.67;;;12.00;99.90;;;;;;5062243;28;20248;-72
2023/12/25 06:30:26;;;;;;;0.90;0.70;;;12.00;99.90;;;;;;5070743;28;20519;-72
2023/12/25 06:32:53;;;;;;;0.90;0.67;;;11.90;99.90;;;;;;5051415;28;20196;-73
2023/12/25 06:35:18;;;;;;;1.20;0.63;;;11.90;99.90;;;;;;5066755;28;20672;-72
2023/12/25 06:37:44;;;;;;;0.90;0.60;;;11.90;99.90;;;;;;5054558;28;20504;-72
2023/12/25 06:40:10;;;;;;;1.43;0.60;;;11.80;99.90;;;;;;5058774;28;20233;-74
2023/12/25 06:42:35;;;;;;;0.80;0.60;;;11.90;99.90;;;;;;5062865;28;20198;-74
2023/12/25 06:45:01;;;;;;;0.90;0.60;;;11.90;99.90;;;;;;5064566;28;20428;-72
2023/12/25 06:47:26;;;;;;;0.90;0.73;;;12.00;99.90;;;;;;5057001;28;20174;-72
2023/12/25 06:49:52;;;;;;;1.60;0.90;;;12.00;99.90;;;;;;5055574;28;20166;-72
2023/12/25 06:52:18;;;;;;;2.40;0.80;;;12.00;99.90;;;;;;5053047;28;20628;-73
2023/12/25 06:54:44;;;;;;;1.60;0.90;;;12.00;99.90;;;;;;5057492;28;20460;-72
2023/12/25 06:57:11;;;;;;;0.83;0.60;;;12.00;99.90;;;;;;5053611;28;20548;-73
2023/12/25 06:59:37;;;;;;;0.90;0.70;;;12.10;99.90;;;;;;5054094;28;20221;-72
2023/12/25 07:02:03;;;;;;;2.43;0.70;;;12.10;99.90;;;;;;5062889;28;20799;-72
2023/12/25 07:04:29;;;;;;;0.70;0.50;;;12.10;99.90;;;;;;5059673;28;20436;-72
2023/12/25 07:06:54;;;;;;;1.13;0.70;;;12.20;99.90;;;;;;5053092;28;20603;-73
2023/12/25 07:09:20;;;;;;;2.00;0.77;;;12.10;99.90;;;;;;5064677;28;20201;-74
2023/12/25 07:11:45;;;;;;;0.90;0.73;;;12.10;99.90;;;;;;5054218;28;20205;-73
2023/12/25 07:14:11;;;;;;;0.87;0.70;;;12.10;99.90;;;;;;5059444;28;20645;-73
2023/12/25 07:16:36;;;;;;;0.80;0.60;;;12.00;99.90;;;;;;5073505;28;20194;-73
2023/12/25 07:19:02;;;;;;;0.90;0.60;;;12.00;99.90;;;;;;5073671;28;20166;-73
2023/12/25 07:21:28;;;;;;;1.13;0.53;;;12.00;99.90;;;;;;5074921;28;20166;-74
2023/12/25 07:23:54;;;;;;;1.40;0.73;;;12.00;99.90;;;;;;5059847;28;20634;-72
2023/12/25 07:26:20;;;;;;;1.73;0.77;;;12.00;99.90;;;;;;5055394;28;20258;-72
2023/12/25 07:28:46;;;;;;;1.00;0.70;;;12.00;99.90;;;;;;5067536;28;20197;-72
2023/12/25 07:31:11;;;;;;;1.43;0.70;;;12.00;99.90;;;;;;5073230;28;20170;-73
2023/12/25 07:33:37;;;;;;;0.70;0.60;;;12.00;99.90;;;;;;5084366;28;20420;-73
2023/12/25 07:36:04;;;;;;;0.90;0.63;;;12.00;99.90;;;;;;5095076;28;20636;-73
2023/12/25 07:38:29;;;;;;;0.90;0.60;;;12.00;99.90;;;;;;5082863;28;20176;-72
2023/12/25 07:40:55;;;;;;;0.80;0.60;;;12.00;99.90;;;;;;5070264;28;20424;-73
2023/12/25 07:43:22;;;;;;;0.90;0.70;;;12.00;99.90;;;;;;5069302;28;20194;-74
2023/12/25 07:45:47;;;;;;;2.63;1.00;;;12.00;99.90;;;;;;5077496;28;20253;-73
2023/12/25 07:48:13;;;;;;;0.77;0.63;;;12.10;99.90;;;;;;5072807;28;21002;-73
2023/12/25 07:50:38;;;;;;;0.90;0.60;;;12.20;99.90;;;;;;5074106;28;20240;-72
2023/12/25 07:53:04;;;;;;;0.80;0.60;;;12.30;99.90;;;;;;5074037;28;20213;-72
2023/12/25 07:55:30;;;;;;;1.20;0.80;;;12.40;99.90;;;;;;5063016;28;20185;-73
2023/12/25 07:57:56;;;;;;;0.80;0.60;;;12.50;99.90;;;;;;5067719;28;20660;-73
2023/12/25 08:00:22;;;;;;;0.80;0.50;;;12.50;99.90;;;;;;5070304;28;20555;-73
2023/12/25 08:02:47;;;;;;;0.70;0.53;;;12.40;99.90;;;;;;5069344;28;20190;-72
2023/12/25 08:05:13;;;;;;;1.23;0.77;;;12.50;99.90;;;;;;5074158;28;20162;-74
2023/12/25 08:07:39;;;;;;;0.80;0.60;;;12.50;99.90;;;;;;5074046;28;20174;-72
2023/12/25 08:10:05;;;;;;;0.70;0.50;;;12.50;99.90;;;;;;5071749;28;20217;-73
2023/12/25 08:12:30;;;;;;;1.40;0.70;;;12.50;99.90;;;;;;5055110;28;20480;-72
2023/12/25 08:14:55;;;;;;;1.23;0.60;;;12.50;99.90;;;;;;5073885;28;20511;-71
2023/12/25 08:17:21;;;;;;;0.80;0.60;;;12.60;99.90;;;;;;5071910;28;20224;-70
2023/12/25 08:19:47;;;;;;;2.00;0.63;;;12.60;99.90;;;;;;5073146;28;20174;-69
2023/12/25 08:22:12;;;;;;;0.80;0.70;;;12.60;99.90;;;;;;5067461;28;20206;-69
2023/12/25 08:24:38;;;;;;;0.90;0.70;;;12.70;99.90;;;;;;5063625;28;20534;-70
2023/12/25 08:27:04;;;;;;;1.10;0.70;;;12.70;99.90;;;;;;5073630;28;20182;-69
2023/12/25 08:29:29;;;;;;;0.80;0.70;;;12.80;99.90;;;;;;5072368;28;20673;-70
2023/12/25 08:31:55;;;;;;;0.70;0.60;;;12.80;99.90;;;;;;5071144;28;20202;-69
2023/12/25 08:34:24;;;;;;;1.10;1.00;;;12.80;99.90;;;;;;5073461;28;20181;-69
2023/12/25 08:36:49;;;;;;;0.90;0.63;;;12.80;99.90;;;;;;5073436;28;20455;-70
2023/12/25 08:39:15;;;;;;;0.80;0.60;;;12.80;99.90;;;;;;5070320;28;20433;-69
2023/12/25 08:41:41;;;;;;;0.70;0.60;;;12.90;99.90;;;;;;5068226;28;20277;-69
2023/12/25 08:44:07;;;;;;;0.80;0.60;;;12.90;99.90;;;;;;5058972;28;20520;-69
2023/12/25 08:46:33;;;;;;;2.43;1.23;;;13.00;99.90;;;;;;5065458;28;20174;-69
2023/12/25 08:48:59;;;;;;;1.20;0.60;;;13.10;99.90;;;;;;5066496;28;20435;-69
2023/12/25 08:51:25;;;;;;;0.70;0.60;;;13.20;99.90;;;;;;5080509;28;20174;-69
2023/12/25 08:53:51;;;;;;;2.60;0.93;;;13.20;99.90;;;;;;5076855;28;21004;-70
2023/12/25 08:56:26;;;;;;;0.70;0.50;;;13.30;99.90;;;;;;5072473;28;20519;-70
2023/12/25 08:58:52;;;;;;;1.37;1.27;;;13.20;99.90;;;;;;5066433;28;20211;-71
2023/12/25 09:01:18;;;;;;;0.90;0.70;;;13.30;99.90;;;;;;5063498;28;20433;-69
2023/12/25 09:03:43;;;;;;;1.93;1.60;;;13.30;99.90;;;;;;5070612;28;20429;-69
2023/12/25 09:06:09;;;;;;;1.10;0.80;;;13.30;99.90;;;;;;5069848;28;20165;-69
2023/12/25 09:08:34;;;;;;;0.93;0.60;;;13.30;99.90;;;;;;5065838;28;20171;-69
2023/12/25 09:11:00;;;;;;;0.77;0.60;;;13.30;99.90;;;;;;5060477;28;20171;-69
2023/12/25 09:13:25;;;;;;;0.80;0.60;;;13.20;99.90;;;;;;5052491;28;20252;-69
2023/12/25 09:15:51;;;;;;;1.00;0.60;;;13.20;99.90;;;;;;5052758;28;20662;-69
2023/12/25 09:18:16;;;;;;;1.53;0.67;;;13.30;99.90;;;;;;5071971;28;20197;-69
2023/12/25 09:20:42;;;;;;;0.90;0.60;;;13.20;99.90;;;;;;5063401;28;20653;-69
2023/12/25 09:23:07;;;;;;;0.80;0.60;;;13.20;99.90;;;;;;5068521;28;20178;-69
2023/12/25 09:25:33;;;;;;;0.70;0.50;;;13.20;99.90;;;;;;5065985;28;20170;-70
2023/12/25 09:27:59;;;;;;;0.80;0.50;;;13.20;99.90;;;;;;5079248;28;20181;-71
2023/12/25 09:30:24;;;;;;;0.70;0.50;;;13.10;99.90;;;;;;5056832;28;20261;-71
2023/12/25 09:32:50;;;;;;;0.80;0.60;;;13.20;99.90;;;;;;5064038;28;20240;-70
2023/12/25 09:35:17;;;;;;;1.00;0.50;;;13.30;99.90;;;;;;5070092;28;20238;-69
2023/12/25 09:37:43;;;;;;;1.60;0.90;;;13.30;99.90;;;;;;5055194;28;20214;-70
2023/12/25 09:40:09;;;;;;;0.80;0.60;;;13.40;99.90;;;;;;5063055;28;20431;-73
2023/12/25 09:42:35;;;;;;;0.77;0.53;;;13.40;99.90;;;;;;5056266;28;20193;-70
2023/12/25 09:45:01;;;;;;;0.80;0.60;;;13.30;99.90;;;;;;5063957;28;20432;-70
2023/12/25 09:47:27;;;;;;;0.70;0.50;;;13.30;99.90;;;;;;5054853;28;20186;-70
2023/12/25 09:49:54;;;;;;;0.80;0.60;;;13.20;99.90;;;;;;5052365;28;20253;-69
2023/12/25 09:52:22;;;;;;;0.80;0.60;;;13.40;99.90;;;;;;5051808;28;20437;-68
2023/12/25 09:54:47;;;;;;;1.33;0.60;;;13.50;99.90;;;;;;5072780;28;20531;-69
2023/12/25 09:57:16;;;;;;;0.70;0.50;;;13.30;99.90;;;;;;5067524;28;21069;-69
2023/12/25 09:59:42;;;;;;;1.17;0.80;;;13.30;99.90;;;;;;5054152;28;20178;-69
2023/12/25 10:02:11;;;;;;;1.10;0.70;;;13.20;99.90;;;;;;5064910;28;20443;-69
2023/12/25 10:04:38;;;;;;;1.00;0.60;;;13.30;99.90;;;;;;5064620;28;20436;-69
2023/12/25 10:07:03;;;;;;;1.57;0.60;;;13.20;99.90;;;;;;5059842;28;20417;-70
2023/12/25 10:09:33;;;;;;;0.90;0.63;;;13.30;99.90;;;;;;5053529;28;20428;-69
2023/12/25 10:11:58;;;;;;;0.93;0.60;;;13.20;99.90;;;;;;5060103;28;20229;-69
2023/12/25 10:14:24;;;;;;;0.80;0.60;;;13.20;99.90;;;;;;5057650;28;20471;-70
2023/12/25 10:16:50;;;;;;;1.87;0.60;;;13.20;99.90;;;;;;5068536;28;20660;-69
2023/12/25 10:19:16;;;;;;;1.37;0.60;;;13.20;99.90;;;;;;5074613;28;20479;-69
2023/12/25 10:21:43;;;;;;;1.20;0.70;;;13.20;99.90;;;;;;5067861;28;20435;-70
2023/12/25 10:24:15;;;;;;;0.80;0.60;;;13.20;99.90;;;;;;5066068;28;20193;-69
2023/12/25 10:26:40;;;;;;;0.70;0.50;;;13.20;99.90;;;;;;5061402;28;20638;-69
2023/12/25 10:29:09;;;;;;;0.90;0.60;;;13.20;99.90;;;;;;5064712;28;20536;-69
2023/12/25 10:31:38;;;;;;;1.40;0.90;;;13.20;99.90;;;;;;5060699;28;20190;-68
2023/12/25 10:34:03;;;;;;;0.80;0.60;;;13.20;99.90;;;;;;5053731;28;20479;-70
2023/12/25 10:36:29;;;;;;;2.20;0.80;;;13.20;99.90;;;;;;5076837;28;20460;-69
2023/12/25 10:38:54;;;;;;;1.00;0.60;;;13.20;99.90;;;;;;5057430;28;20224;-70
2023/12/25 10:41:24;;;;;;;1.83;0.50;;;13.20;99.90;;;;;;5060018;28;20253;-69
2023/12/25 10:43:52;;;;;;;1.37;0.70;;;13.20;99.90;;;;;;5072834;28;20248;-69
2023/12/25 10:46:34;;;;;;;0.70;0.50;;;13.20;99.90;;;;;;5063021;28;20424;-68
2023/12/25 10:49:01;;;;;;;0.90;0.60;;;13.20;99.90;;;;;;5068561;28;20419;-69
2023/12/25 10:51:46;;;;;;;1.77;0.67;;;13.40;99.90;;;;;;5074129;28;20420;-69
2023/12/25 10:54:14;;;;;;;1.77;0.60;;;13.40;99.90;;;;;;5069598;28;20431;-69
2023/12/25 10:56:40;;;;;;;0.90;0.70;;;13.40;99.90;;;;;;5083611;28;20559;-69
2023/12/25 10:59:24;;;;;;;1.03;0.60;;;13.40;99.90;;;;;;5072837;28;20510;-70
2023/12/25 11:01:51;;;;;;;0.80;0.70;;;13.50;99.90;;;;;;5073034;28;20191;-69
2023/12/25 11:04:20;;;;;;;3.40;0.63;;;13.50;99.90;;;;;;5081526;28;20408;-69
2023/12/25 11:06:47;;;;;;;0.90;0.60;;;13.40;99.90;;;;;;5075256;28;20507;-69
2023/12/25 11:09:15;;;;;;;3.10;0.67;;;13.40;99.90;;;;;;5072693;28;20420;-69
2023/12/25 11:11:41;;;;;;;3.30;1.63;;;13.30;99.90;;;;;;5074834;28;20451;-70
2023/12/25 11:14:07;;;;;;;1.30;0.70;;;13.40;99.90;;;;;;5074871;28;20443;-69
2023/12/25 11:16:36;;;;;;;0.80;0.50;;;13.50;99.90;;;;;;5073339;28;20456;-69
2023/12/25 11:19:02;;;;;;;0.80;0.60;;;13.60;99.90;;;;;;5065388;28;20427;-69
2023/12/25 11:21:29;;;;;;;0.80;0.60;;;13.60;99.90;;;;;;5074709;28;20405;-69
2023/12/25 11:23:55;;;;;;;1.30;0.90;;;13.60;99.90;;;;;;5073810;28;20515;-69
2023/12/25 11:26:25;;;;;;;0.80;0.70;;;13.70;99.90;;;;;;5072508;28;20424;-69
2023/12/25 11:29:02;;;;;;;0.80;0.60;;;13.70;99.90;;;;;;5073429;28;20971;-70
2023/12/25 11:31:29;;;;;;;0.80;0.57;;;13.70;99.90;;;;;;5074666;28;20407;-69
2023/12/25 11:34:21;;;;;;;0.77;0.57;;;13.80;99.90;;;;;;5067477;28;21179;-69
2023/12/25 11:36:51;;;;;;;1.20;0.77;;;13.80;99.90;;;;;;5074495;28;20451;-69
2023/12/25 11:39:17;;;;;;;1.33;0.60;;;13.70;99.90;;;;;;5070093;28;20482;-70
2023/12/25 11:41:45;;;;;;;1.30;1.03;;;13.70;99.90;;;;;;5070258;28;20443;-69
2023/12/25 11:44:17;;;;;;;0.80;0.60;;;13.70;99.90;;;;;;5070668;28;20428;-68
2023/12/25 11:46:46;;;;;;;0.80;0.60;;;13.70;99.90;;;;;;5067266;28;20423;-69
2023/12/25 11:49:19;;;;;;;1.00;0.80;;;13.80;99.90;;;;;;5062755;28;20460;-69
2023/12/25 11:51:48;;;;;;;0.80;0.60;;;13.70;99.90;;;;;;5073670;28;20430;-69
2023/12/25 11:54:14;;;;;;;1.83;0.70;;;13.70;99.90;;;;;;5068463;28;20452;-69
2023/12/25 11:56:39;;;;;;;0.80;0.80;;;13.70;99.90;;;;;;5071121;28;20464;-69
2023/12/25 11:59:05;;;;;;;1.40;1.00;;;13.70;99.90;;;;;;5072767;28;20174;-68
2023/12/25 12:01:31;;;;;;;0.80;0.70;;;13.70;99.90;;;;;;5073954;28;20202;-68
2023/12/25 12:03:57;;;;;;;3.20;0.80;;;13.60;99.90;;;;;;5062766;28;20492;-69
2023/12/25 12:06:22;;;;;;;1.10;0.80;;;13.70;99.90;;;;;;5056441;28;20194;-68
2023/12/25 12:08:48;;;;;;;0.90;0.80;;;13.70;99.90;;;;;;5057281;28;20171;-70
2023/12/25 12:11:15;;;;;;;1.87;0.70;;;13.70;99.90;;;;;;5063657;28;20197;-71
2023/12/25 12:13:42;;;;;;;0.90;0.70;;;13.80;99.90;;;;;;5062789;28;20932;-68
2023/12/25 12:16:08;;;;;;;5.80;0.70;;;13.90;99.90;;;;;;5065303;28;20473;-69
2023/12/25 12:18:34;;;;;;;1.23;0.93;;;13.90;99.90;;;;;;5068356;28;20429;-70
2023/12/25 12:21:00;;;;;;;2.40;0.60;;;13.90;99.90;;;;;;5063003;28;20201;-69
2023/12/25 12:23:31;;;;;;;1.00;0.70;;;13.90;99.90;;;;;;5063859;28;20505;-69
2023/12/25 12:25:57;;;;;;;1.00;0.90;;;13.80;99.90;;;;;;5071970;28;20170;-69
2023/12/25 12:28:22;;;;;;;1.40;0.70;;;13.70;99.90;;;;;;5072215;28;20431;-69
2023/12/25 12:30:48;;;;;;;0.80;0.70;;;13.60;99.90;;;;;;5076457;28;20427;-69
2023/12/25 12:33:14;;;;;;;1.83;0.90;;;13.60;99.90;;;;;;5077684;28;20229;-69
2023/12/25 12:35:39;;;;;;;1.20;1.00;;;13.50;99.90;;;;;;5070602;28;20174;-69
2023/12/25 12:38:05;;;;;;;1.50;1.27;;;13.60;99.90;;;;;;5059500;28;20463;-69
2023/12/25 12:40:32;;;;;;;2.67;0.80;;;13.60;99.90;;;;;;5060953;28;20181;-69
2023/12/25 12:42:57;;;;;;;1.00;0.90;;;13.60;99.90;;;;;;5065077;28;20449;-69